sensor_id;sensor_type;location;lat;lon;timestamp;temperature;humidity
67192;HTU21D;54120;53.504;49.426;2023-08-20T00:02:18;19.16;64.80
67192;HTU21D;54120;53.504;49.426;2023-08-20T00:04:48;19.09;65.05
67192;HTU21D;54120;53.504;49.426;2023-08-20T00:07:15;19.12;64.82
67192;HTU21D;54120;53.504;49.426;2023-08-20T00:09:44;19.16;64.50
67192;HTU21D;54120;53.504;49.426;2023-08-20T00:12:11;19.10;64.88
67192;HTU21D;54120;53.504;49.426;2023-08-20T00:14:58;19.00;65.12
67192;HTU21D;54120;53.504;49.426;2023-08-20T00:17:40;18.87;65.47
67192;HTU21D;54120;53.504;49.426;2023-08-20T00:20:09;18.77;66.01
67192;HTU21D;54120;53.504;49.426;2023-08-20T00:22:40;18.72;66.14
67192;HTU21D;54120;53.504;49.426;2023-08-20T00:25:08;18.67;66.43
67192;HTU21D;54120;53.504;49.426;2023-08-20T00:27:35;18.62;66.79
67192;HTU21D;54120;53.504;49.426;2023-08-20T00:30:01;18.66;66.43
67192;HTU21D;54120;53.504;49.426;2023-08-20T00:32:27;18.64;66.36
67192;HTU21D;54120;53.504;49.426;2023-08-20T00:34:54;18.69;66.14
67192;HTU21D;54120;53.504;49.426;2023-08-20T00:37:20;18.66;66.04
67192;HTU21D;54120;53.504;49.426;2023-08-20T00:39:47;18.58;66.20
67192;HTU21D;54120;53.504;49.426;2023-08-20T00:42:15;18.59;66.24
67192;HTU21D;54120;53.504;49.426;2023-08-20T00:44:42;18.65;65.98
67192;HTU21D;54120;53.504;49.426;2023-08-20T00:47:10;18.58;66.37
67192;HTU21D;54120;53.504;49.426;2023-08-20T00:49:40;18.54;66.33
67192;HTU21D;54120;53.504;49.426;2023-08-20T00:52:11;18.51;66.65
67192;HTU21D;54120;53.504;49.426;2023-08-20T00:54:39;18.47;66.81
67192;HTU21D;54120;53.504;49.426;2023-08-20T00:57:06;18.42;67.01
67192;HTU21D;54120;53.504;49.426;2023-08-20T00:59:34;18.40;67.07
67192;HTU21D;54120;53.504;49.426;2023-08-20T01:02:01;18.44;66.80
67192;HTU21D;54120;53.504;49.426;2023-08-20T01:04:29;18.41;67.01
67192;HTU21D;54120;53.504;49.426;2023-08-20T01:07:48;18.27;67.46
67192;HTU21D;54120;53.504;49.426;2023-08-20T01:10:33;18.23;67.59
67192;HTU21D;54120;53.504;49.426;2023-08-20T01:13:03;18.21;67.79
67192;HTU21D;54120;53.504;49.426;2023-08-20T01:15:30;18.22;67.65
67192;HTU21D;54120;53.504;49.426;2023-08-20T01:17:56;18.15;67.69
67192;HTU21D;54120;53.504;49.426;2023-08-20T01:20:29;18.13;68.07
67192;HTU21D;54120;53.504;49.426;2023-08-20T01:28:38;18.39;67.07
67192;HTU21D;54120;53.504;49.426;2023-08-20T01:31:06;18.35;66.78
67192;HTU21D;54120;53.504;49.426;2023-08-20T01:33:34;18.32;67.18
67192;HTU21D;54120;53.504;49.426;2023-08-20T01:36:01;18.28;67.42
67192;HTU21D;54120;53.504;49.426;2023-08-20T01:38:28;18.33;66.91
67192;HTU21D;54120;53.504;49.426;2023-08-20T01:40:54;18.32;67.40
67192;HTU21D;54120;53.504;49.426;2023-08-20T01:43:22;18.44;66.65
67192;HTU21D;54120;53.504;49.426;2023-08-20T01:45:49;18.51;66.43
67192;HTU21D;54120;53.504;49.426;2023-08-20T01:48:15;18.53;65.94
67192;HTU21D;54120;53.504;49.426;2023-08-20T01:50:42;18.47;66.40
67192;HTU21D;54120;53.504;49.426;2023-08-20T01:53:08;18.49;66.37
67192;HTU21D;54120;53.504;49.426;2023-08-20T01:55:35;18.44;66.75
67192;HTU21D;54120;53.504;49.426;2023-08-20T01:58:02;18.47;67.23
67192;HTU21D;54120;53.504;49.426;2023-08-20T02:00:29;18.53;66.75
67192;HTU21D;54120;53.504;49.426;2023-08-20T02:02:56;18.51;66.91
67192;HTU21D;54120;53.504;49.426;2023-08-20T02:05:23;18.53;66.37
67192;HTU21D;54120;53.504;49.426;2023-08-20T02:07:50;18.50;66.49
67192;HTU21D;54120;53.504;49.426;2023-08-20T02:10:16;18.55;66.27
67192;HTU21D;54120;53.504;49.426;2023-08-20T02:12:43;18.61;66.30
67192;HTU21D;54120;53.504;49.426;2023-08-20T02:15:09;18.70;65.76
67192;HTU21D;54120;53.504;49.426;2023-08-20T02:17:37;18.85;65.51
67192;HTU21D;54120;53.504;49.426;2023-08-20T02:20:04;19.36;65.43
67192;HTU21D;54120;53.504;49.426;2023-08-20T02:22:31;20.54;60.45
67192;HTU21D;54120;53.504;49.426;2023-08-20T02:25:00;21.78;55.57
67192;HTU21D;54120;53.504;49.426;2023-08-20T02:27:26;22.54;53.37
67192;HTU21D;54120;53.504;49.426;2023-08-20T02:29:53;23.56;50.06
67192;HTU21D;54120;53.504;49.426;2023-08-20T02:32:20;24.46;47.14
67192;HTU21D;54120;53.504;49.426;2023-08-20T02:34:52;25.29;45.23
67192;HTU21D;54120;53.504;49.426;2023-08-20T02:37:19;24.14;47.90
67192;HTU21D;54120;53.504;49.426;2023-08-20T02:39:46;22.83;51.91
67192;HTU21D;54120;53.504;49.426;2023-08-20T02:42:14;22.46;54.74
67192;HTU21D;54120;53.504;49.426;2023-08-20T02:44:40;24.05;48.70
67192;HTU21D;54120;53.504;49.426;2023-08-20T02:47:07;25.06;45.77
67192;HTU21D;54120;53.504;49.426;2023-08-20T02:49:34;25.88;42.80
67192;HTU21D;54120;53.504;49.426;2023-08-20T02:52:01;26.13;42.42
67192;HTU21D;54120;53.504;49.426;2023-08-20T02:54:29;26.43;41.99
67192;HTU21D;54120;53.504;49.426;2023-08-20T02:56:58;24.51;46.44
67192;HTU21D;54120;53.504;49.426;2023-08-20T02:59:25;22.38;52.50
67192;HTU21D;54120;53.504;49.426;2023-08-20T03:01:51;20.95;57.13
67192;HTU21D;54120;53.504;49.426;2023-08-20T03:04:17;20.22;59.72
67192;HTU21D;54120;53.504;49.426;2023-08-20T03:06:44;19.88;61.06
67192;HTU21D;54120;53.504;49.426;2023-08-20T03:09:10;19.74;61.59
67192;HTU21D;54120;53.504;49.426;2023-08-20T03:11:36;19.87;61.19
67192;HTU21D;54120;53.504;49.426;2023-08-20T03:14:03;21.03;57.53
67192;HTU21D;54120;53.504;49.426;2023-08-20T03:16:29;24.00;48.47
67192;HTU21D;54120;53.504;49.426;2023-08-20T03:18:55;25.14;45.43
67192;HTU21D;54120;53.504;49.426;2023-08-20T03:21:22;26.71;40.96
67192;HTU21D;54120;53.504;49.426;2023-08-20T03:23:49;27.78;38.50
67192;HTU21D;54120;53.504;49.426;2023-08-20T03:26:15;28.46;36.85
67192;HTU21D;54120;53.504;49.426;2023-08-20T03:28:41;28.71;36.08
67192;HTU21D;54120;53.504;49.426;2023-08-20T03:31:07;28.17;37.50
67192;HTU21D;54120;53.504;49.426;2023-08-20T03:33:34;27.46;38.91
67192;HTU21D;54120;53.504;49.426;2023-08-20T03:36:00;27.58;38.68
67192;HTU21D;54120;53.504;49.426;2023-08-20T03:38:27;28.02;37.87
67192;HTU21D;54120;53.504;49.426;2023-08-20T03:40:54;28.91;35.86
67192;HTU21D;54120;53.504;49.426;2023-08-20T03:43:21;30.13;33.49
67192;HTU21D;54120;53.504;49.426;2023-08-20T03:45:51;30.60;32.56
67192;HTU21D;54120;53.504;49.426;2023-08-20T03:48:17;30.57;33.12
67192;HTU21D;54120;53.504;49.426;2023-08-20T03:50:44;31.01;31.78
67192;HTU21D;54120;53.504;49.426;2023-08-20T03:53:10;30.62;32.67
67192;HTU21D;54120;53.504;49.426;2023-08-20T03:55:36;31.52;30.71
67192;HTU21D;54120;53.504;49.426;2023-08-20T03:58:02;30.83;32.04
67192;HTU21D;54120;53.504;49.426;2023-08-20T04:00:29;30.06;33.22
67192;HTU21D;54120;53.504;49.426;2023-08-20T04:02:59;30.05;33.58
67192;HTU21D;54120;53.504;49.426;2023-08-20T04:05:26;31.16;31.45
67192;HTU21D;54120;53.504;49.426;2023-08-20T04:07:52;32.84;28.71
67192;HTU21D;54120;53.504;49.426;2023-08-20T04:10:19;33.31;27.91
67192;HTU21D;54120;53.504;49.426;2023-08-20T04:12:45;33.36;28.00
67192;HTU21D;54120;53.504;49.426;2023-08-20T04:15:12;33.49;27.71
67192;HTU21D;54120;53.504;49.426;2023-08-20T04:17:39;33.49;27.06
67192;HTU21D;54120;53.504;49.426;2023-08-20T04:20:06;32.97;28.13
67192;HTU21D;54120;53.504;49.426;2023-08-20T04:22:34;33.06;28.60
67192;HTU21D;54120;53.504;49.426;2023-08-20T04:25:01;34.11;26.55
67192;HTU21D;54120;53.504;49.426;2023-08-20T04:27:27;34.70;25.83
67192;HTU21D;54120;53.504;49.426;2023-08-20T04:29:55;35.04;25.19
67192;HTU21D;54120;53.504;49.426;2023-08-20T04:32:22;34.80;25.24
67192;HTU21D;54120;53.504;49.426;2023-08-20T04:34:49;35.78;23.59
67192;HTU21D;54120;53.504;49.426;2023-08-20T04:37:19;35.85;23.66
67192;HTU21D;54120;53.504;49.426;2023-08-20T04:39:45;35.71;24.01
67192;HTU21D;54120;53.504;49.426;2023-08-20T04:42:12;35.04;24.74
67192;HTU21D;54120;53.504;49.426;2023-08-20T04:44:38;35.86;23.52
67192;HTU21D;54120;53.504;49.426;2023-08-20T04:47:05;36.77;22.50
67192;HTU21D;54120;53.504;49.426;2023-08-20T04:49:32;34.76;24.92
67192;HTU21D;54120;53.504;49.426;2023-08-20T04:51:58;34.14;26.04
67192;HTU21D;54120;53.504;49.426;2023-08-20T04:54:25;35.84;23.68
67192;HTU21D;54120;53.504;49.426;2023-08-20T04:56:52;35.44;24.53
67192;HTU21D;54120;53.504;49.426;2023-08-20T04:59:18;35.86;23.76
67192;HTU21D;54120;53.504;49.426;2023-08-20T05:01:44;35.10;24.59
67192;HTU21D;54120;53.504;49.426;2023-08-20T05:04:10;34.33;26.31
67192;HTU21D;54120;53.504;49.426;2023-08-20T05:06:37;35.16;25.04
67192;HTU21D;54120;53.504;49.426;2023-08-20T05:09:04;36.09;22.69
67192;HTU21D;54120;53.504;49.426;2023-08-20T05:11:31;35.23;24.23
67192;HTU21D;54120;53.504;49.426;2023-08-20T05:13:58;35.83;23.28
67192;HTU21D;54120;53.504;49.426;2023-08-20T05:16:25;35.51;23.74
67192;HTU21D;54120;53.504;49.426;2023-08-20T05:18:51;34.92;24.57
67192;HTU21D;54120;53.504;49.426;2023-08-20T05:21:18;36.02;23.23
67192;HTU21D;54120;53.504;49.426;2023-08-20T05:23:44;36.99;21.53
67192;HTU21D;54120;53.504;49.426;2023-08-20T05:26:10;35.47;23.95
67192;HTU21D;54120;53.504;49.426;2023-08-20T05:28:36;36.26;23.31
67192;HTU21D;54120;53.504;49.426;2023-08-20T05:31:03;36.67;22.64
67192;HTU21D;54120;53.504;49.426;2023-08-20T05:33:29;37.46;21.17
67192;HTU21D;54120;53.504;49.426;2023-08-20T05:35:57;37.59;20.07
67192;HTU21D;54120;53.504;49.426;2023-08-20T05:38:24;37.35;20.60
67192;HTU21D;54120;53.504;49.426;2023-08-20T05:40:50;38.05;19.79
67192;HTU21D;54120;53.504;49.426;2023-08-20T05:43:16;38.98;17.90
67192;HTU21D;54120;53.504;49.426;2023-08-20T05:45:43;37.85;19.73
67192;HTU21D;54120;53.504;49.426;2023-08-20T05:48:10;38.16;18.98
67192;HTU21D;54120;53.504;49.426;2023-08-20T05:50:36;38.16;18.99
67192;HTU21D;54120;53.504;49.426;2023-08-20T05:53:03;37.66;19.85
67192;HTU21D;54120;53.504;49.426;2023-08-20T05:55:29;37.15;20.15
67192;HTU21D;54120;53.504;49.426;2023-08-20T05:57:55;37.03;20.69
67192;HTU21D;54120;53.504;49.426;2023-08-20T06:00:22;38.22;18.87
67192;HTU21D;54120;53.504;49.426;2023-08-20T06:02:48;38.07;18.97
67192;HTU21D;54120;53.504;49.426;2023-08-20T06:05:14;37.10;19.47
67192;HTU21D;54120;53.504;49.426;2023-08-20T06:07:40;36.72;20.25
67192;HTU21D;54120;53.504;49.426;2023-08-20T06:10:07;37.22;19.86
67192;HTU21D;54120;53.504;49.426;2023-08-20T06:12:34;36.51;20.33
67192;HTU21D;54120;53.504;49.426;2023-08-20T06:15:00;35.38;21.97
67192;HTU21D;54120;53.504;49.426;2023-08-20T06:17:27;34.90;22.80
67192;HTU21D;54120;53.504;49.426;2023-08-20T06:19:53;35.50;22.19
67192;HTU21D;54120;53.504;49.426;2023-08-20T06:22:19;36.45;20.47
67192;HTU21D;54120;53.504;49.426;2023-08-20T06:24:46;35.59;21.69
67192;HTU21D;54120;53.504;49.426;2023-08-20T06:27:12;35.78;21.90
67192;HTU21D;54120;53.504;49.426;2023-08-20T06:29:38;36.53;20.41
67192;HTU21D;54120;53.504;49.426;2023-08-20T06:32:04;37.40;19.49
67192;HTU21D;54120;53.504;49.426;2023-08-20T06:34:31;35.81;21.28
67192;HTU21D;54120;53.504;49.426;2023-08-20T06:36:57;35.54;21.21
67192;HTU21D;54120;53.504;49.426;2023-08-20T06:39:24;34.69;22.36
67192;HTU21D;54120;53.504;49.426;2023-08-20T06:41:50;34.38;23.62
67192;HTU21D;54120;53.504;49.426;2023-08-20T06:44:16;33.67;24.31
67192;HTU21D;54120;53.504;49.426;2023-08-20T06:46:43;33.65;25.48
67192;HTU21D;54120;53.504;49.426;2023-08-20T06:49:09;35.53;21.94
67192;HTU21D;54120;53.504;49.426;2023-08-20T06:51:35;35.06;22.38
67192;HTU21D;54120;53.504;49.426;2023-08-20T06:54:02;35.55;21.41
67192;HTU21D;54120;53.504;49.426;2023-08-20T06:56:28;34.70;21.95
67192;HTU21D;54120;53.504;49.426;2023-08-20T06:58:54;34.14;23.39
67192;HTU21D;54120;53.504;49.426;2023-08-20T07:01:21;34.67;22.28
67192;HTU21D;54120;53.504;49.426;2023-08-20T07:03:47;33.51;24.30
67192;HTU21D;54120;53.504;49.426;2023-08-20T07:06:14;33.49;24.24
67192;HTU21D;54120;53.504;49.426;2023-08-20T07:08:42;32.98;25.46
67192;HTU21D;54120;53.504;49.426;2023-08-20T07:11:08;33.48;24.88
67192;HTU21D;54120;53.504;49.426;2023-08-20T07:13:35;35.26;21.34
67192;HTU21D;54120;53.504;49.426;2023-08-20T07:16:01;35.85;21.54
67192;HTU21D;54120;53.504;49.426;2023-08-20T07:18:28;37.48;19.45
67192;HTU21D;54120;53.504;49.426;2023-08-20T07:20:55;37.36;19.26
67192;HTU21D;54120;53.504;49.426;2023-08-20T07:23:21;37.54;18.76
67192;HTU21D;54120;53.504;49.426;2023-08-20T07:25:48;38.75;17.51
67192;HTU21D;54120;53.504;49.426;2023-08-20T07:28:18;37.08;18.94
67192;HTU21D;54120;53.504;49.426;2023-08-20T07:31:06;34.39;23.06
67192;HTU21D;54120;53.504;49.426;2023-08-20T07:33:33;33.03;26.02
67192;HTU21D;54120;53.504;49.426;2023-08-20T07:35:59;33.59;24.53
67192;HTU21D;54120;53.504;49.426;2023-08-20T07:38:25;32.64;26.14
67192;HTU21D;54120;53.504;49.426;2023-08-20T07:40:51;31.94;27.30
67192;HTU21D;54120;53.504;49.426;2023-08-20T07:43:17;31.49;27.84
67192;HTU21D;54120;53.504;49.426;2023-08-20T07:45:44;32.40;26.67
67192;HTU21D;54120;53.504;49.426;2023-08-20T07:48:10;32.41;26.62
67192;HTU21D;54120;53.504;49.426;2023-08-20T07:50:36;30.25;31.24
67192;HTU21D;54120;53.504;49.426;2023-08-20T07:53:03;28.62;34.09
67192;HTU21D;54120;53.504;49.426;2023-08-20T07:55:30;27.74;35.98
67192;HTU21D;54120;53.504;49.426;2023-08-20T07:57:57;27.75;35.97
67192;HTU21D;54120;53.504;49.426;2023-08-20T08:00:23;27.15;37.30
67192;HTU21D;54120;53.504;49.426;2023-08-20T08:02:49;26.73;37.94
67192;HTU21D;54120;53.504;49.426;2023-08-20T08:05:15;26.28;39.60
67192;HTU21D;54120;53.504;49.426;2023-08-20T08:07:41;26.37;39.56
67192;HTU21D;54120;53.504;49.426;2023-08-20T08:10:07;26.41;39.14
67192;HTU21D;54120;53.504;49.426;2023-08-20T08:12:33;26.99;37.82
67192;HTU21D;54120;53.504;49.426;2023-08-20T08:15:00;26.70;38.20
67192;HTU21D;54120;53.504;49.426;2023-08-20T08:17:26;26.16;39.88
67192;HTU21D;54120;53.504;49.426;2023-08-20T08:19:52;26.34;39.15
67192;HTU21D;54120;53.504;49.426;2023-08-20T08:22:19;26.61;39.20
67192;HTU21D;54120;53.504;49.426;2023-08-20T08:24:45;27.24;38.70
67192;HTU21D;54120;53.504;49.426;2023-08-20T08:27:11;27.63;36.93
67192;HTU21D;54120;53.504;49.426;2023-08-20T08:29:37;27.35;37.33
67192;HTU21D;54120;53.504;49.426;2023-08-20T08:32:03;27.37;37.65
67192;HTU21D;54120;53.504;49.426;2023-08-20T08:34:29;26.94;38.43
67192;HTU21D;54120;53.504;49.426;2023-08-20T08:36:55;26.62;39.59
67192;HTU21D;54120;53.504;49.426;2023-08-20T08:39:21;26.48;40.96
67192;HTU21D;54120;53.504;49.426;2023-08-20T08:41:51;26.60;39.84
67192;HTU21D;54120;53.504;49.426;2023-08-20T08:44:19;26.43;40.72
67192;HTU21D;54120;53.504;49.426;2023-08-20T08:46:47;26.78;40.13
67192;HTU21D;54120;53.504;49.426;2023-08-20T08:49:15;27.24;39.33
67192;HTU21D;54120;53.504;49.426;2023-08-20T08:51:42;27.27;39.06
67192;HTU21D;54120;53.504;49.426;2023-08-20T08:54:10;27.65;37.57
67192;HTU21D;54120;53.504;49.426;2023-08-20T08:56:37;27.91;37.14
67192;HTU21D;54120;53.504;49.426;2023-08-20T08:59:03;28.03;37.24
67192;HTU21D;54120;53.504;49.426;2023-08-20T09:01:29;28.04;36.78
67192;HTU21D;54120;53.504;49.426;2023-08-20T09:03:56;27.95;36.92
67192;HTU21D;54120;53.504;49.426;2023-08-20T09:06:23;27.75;37.91
67192;HTU21D;54120;53.504;49.426;2023-08-20T09:08:49;27.91;36.98
67192;HTU21D;54120;53.504;49.426;2023-08-20T09:11:16;27.84;37.16
67192;HTU21D;54120;53.504;49.426;2023-08-20T09:13:42;27.86;37.08
67192;HTU21D;54120;53.504;49.426;2023-08-20T09:16:10;27.54;37.43
67192;HTU21D;54120;53.504;49.426;2023-08-20T09:18:42;27.01;39.07
67192;HTU21D;54120;53.504;49.426;2023-08-20T09:21:11;27.11;38.53
67192;HTU21D;54120;53.504;49.426;2023-08-20T09:23:38;26.81;39.50
67192;HTU21D;54120;53.504;49.426;2023-08-20T09:26:07;26.76;39.63
67192;HTU21D;54120;53.504;49.426;2023-08-20T09:28:46;26.97;39.54
67192;HTU21D;54120;53.504;49.426;2023-08-20T09:31:13;27.58;38.71
67192;HTU21D;54120;53.504;49.426;2023-08-20T09:33:53;27.98;37.86
67192;HTU21D;54120;53.504;49.426;2023-08-20T09:36:32;28.05;37.29
67192;HTU21D;54120;53.504;49.426;2023-08-20T09:39:00;28.42;36.51
67192;HTU21D;54120;53.504;49.426;2023-08-20T09:41:26;28.47;36.32
67192;HTU21D;54120;53.504;49.426;2023-08-20T09:43:57;28.42;36.34
67192;HTU21D;54120;53.504;49.426;2023-08-20T09:46:26;27.76;37.74
67192;HTU21D;54120;53.504;49.426;2023-08-20T09:48:56;27.66;37.97
67192;HTU21D;54120;53.504;49.426;2023-08-20T09:51:28;27.74;38.21
67192;HTU21D;54120;53.504;49.426;2023-08-20T09:56:28;27.95;37.39
67192;HTU21D;54120;53.504;49.426;2023-08-20T09:58:57;28.18;37.29
67192;HTU21D;54120;53.504;49.426;2023-08-20T10:01:25;27.93;37.32
67192;HTU21D;54120;53.504;49.426;2023-08-20T10:03:52;27.96;37.98
67192;HTU21D;54120;53.504;49.426;2023-08-20T10:06:18;27.99;38.31
67192;HTU21D;54120;53.504;49.426;2023-08-20T10:08:46;28.06;37.88
67192;HTU21D;54120;53.504;49.426;2023-08-20T10:11:15;28.03;37.99
67192;HTU21D;54120;53.504;49.426;2023-08-20T10:13:41;27.90;37.75
67192;HTU21D;54120;53.504;49.426;2023-08-20T10:16:08;27.61;38.91
67192;HTU21D;54120;53.504;49.426;2023-08-20T10:18:34;27.57;38.88
67192;HTU21D;54120;53.504;49.426;2023-08-20T10:21:01;27.52;39.22
67192;HTU21D;54120;53.504;49.426;2023-08-20T10:23:28;27.70;38.53
67192;HTU21D;54120;53.504;49.426;2023-08-20T10:25:54;27.51;38.43
67192;HTU21D;54120;53.504;49.426;2023-08-20T10:28:21;27.20;39.65
67192;HTU21D;54120;53.504;49.426;2023-08-20T10:33:34;27.41;39.64
67192;HTU21D;54120;53.504;49.426;2023-08-20T10:36:18;27.45;39.14
67192;HTU21D;54120;53.504;49.426;2023-08-20T10:38:49;27.52;39.16
67192;HTU21D;54120;53.504;49.426;2023-08-20T10:41:15;27.53;39.12
67192;HTU21D;54120;53.504;49.426;2023-08-20T10:43:49;27.10;39.60
67192;HTU21D;54120;53.504;49.426;2023-08-20T10:46:23;26.86;40.41
67192;HTU21D;54120;53.504;49.426;2023-08-20T10:49:01;26.99;40.75
67192;HTU21D;54120;53.504;49.426;2023-08-20T10:51:33;27.15;39.75
67192;HTU21D;54120;53.504;49.426;2023-08-20T10:56:47;27.50;39.36
67192;HTU21D;54120;53.504;49.426;2023-08-20T10:59:22;27.75;39.08
67192;HTU21D;54120;53.504;49.426;2023-08-20T11:01:50;27.85;38.32
67192;HTU21D;54120;53.504;49.426;2023-08-20T11:04:18;27.89;39.01
67192;HTU21D;54120;53.504;49.426;2023-08-20T11:06:45;28.05;38.23
67192;HTU21D;54120;53.504;49.426;2023-08-20T11:09:12;27.96;38.34
67192;HTU21D;54120;53.504;49.426;2023-08-20T11:11:39;27.86;38.96
67192;HTU21D;54120;53.504;49.426;2023-08-20T11:14:08;27.66;39.16
67192;HTU21D;54120;53.504;49.426;2023-08-20T11:16:37;27.64;39.59
67192;HTU21D;54120;53.504;49.426;2023-08-20T11:19:04;27.52;39.77
67192;HTU21D;54120;53.504;49.426;2023-08-20T11:21:43;27.50;39.85
67192;HTU21D;54120;53.504;49.426;2023-08-20T11:24:10;27.31;39.82
67192;HTU21D;54120;53.504;49.426;2023-08-20T11:26:39;27.22;40.06
67192;HTU21D;54120;53.504;49.426;2023-08-20T11:29:09;27.41;40.18
67192;HTU21D;54120;53.504;49.426;2023-08-20T11:31:39;27.73;39.90
67192;HTU21D;54120;53.504;49.426;2023-08-20T11:34:05;28.08;38.77
67192;HTU21D;54120;53.504;49.426;2023-08-20T11:36:32;28.31;37.59
67192;HTU21D;54120;53.504;49.426;2023-08-20T11:38:58;28.16;38.07
67192;HTU21D;54120;53.504;49.426;2023-08-20T11:41:25;27.90;38.61
67192;HTU21D;54120;53.504;49.426;2023-08-20T11:43:52;27.75;39.07
67192;HTU21D;54120;53.504;49.426;2023-08-20T11:46:20;27.67;39.28
67192;HTU21D;54120;53.504;49.426;2023-08-20T11:49:07;27.74;38.69
67192;HTU21D;54120;53.504;49.426;2023-08-20T11:51:37;27.52;39.28
67192;HTU21D;54120;53.504;49.426;2023-08-20T11:54:22;27.22;40.23
67192;HTU21D;54120;53.504;49.426;2023-08-20T11:56:51;26.63;41.56
67192;HTU21D;54120;53.504;49.426;2023-08-20T11:59:19;26.57;42.17
67192;HTU21D;54120;53.504;49.426;2023-08-20T12:01:59;26.91;41.03
67192;HTU21D;54120;53.504;49.426;2023-08-20T12:04:32;27.12;40.53
67192;HTU21D;54120;53.504;49.426;2023-08-20T12:09:31;27.30;40.18
67192;HTU21D;54120;53.504;49.426;2023-08-20T12:11:58;27.32;39.67
67192;HTU21D;54120;53.504;49.426;2023-08-20T12:14:25;26.85;41.00
67192;HTU21D;54120;53.504;49.426;2023-08-20T12:16:53;26.91;40.94
67192;HTU21D;54120;53.504;49.426;2023-08-20T12:19:20;26.97;41.07
67192;HTU21D;54120;53.504;49.426;2023-08-20T12:21:47;27.25;40.62
67192;HTU21D;54120;53.504;49.426;2023-08-20T12:24:15;27.27;40.04
67192;HTU21D;54120;53.504;49.426;2023-08-20T12:26:42;27.21;39.91
67192;HTU21D;54120;53.504;49.426;2023-08-20T12:29:08;27.04;40.65
67192;HTU21D;54120;53.504;49.426;2023-08-20T12:31:35;27.24;40.48
67192;HTU21D;54120;53.504;49.426;2023-08-20T12:34:02;27.30;40.26
67192;HTU21D;54120;53.504;49.426;2023-08-20T12:36:29;27.45;39.70
67192;HTU21D;54120;53.504;49.426;2023-08-20T12:38:56;27.53;39.72
67192;HTU21D;54120;53.504;49.426;2023-08-20T12:41:22;27.55;39.57
67192;HTU21D;54120;53.504;49.426;2023-08-20T12:43:49;27.42;39.94
67192;HTU21D;54120;53.504;49.426;2023-08-20T12:46:17;27.42;39.77
67192;HTU21D;54120;53.504;49.426;2023-08-20T12:48:43;27.47;39.52
67192;HTU21D;54120;53.504;49.426;2023-08-20T12:51:10;27.49;39.73
67192;HTU21D;54120;53.504;49.426;2023-08-20T12:53:39;27.50;39.62
67192;HTU21D;54120;53.504;49.426;2023-08-20T12:56:06;27.21;39.65
67192;HTU21D;54120;53.504;49.426;2023-08-20T12:58:32;27.28;40.23
67192;HTU21D;54120;53.504;49.426;2023-08-20T13:00:59;27.24;39.16
67192;HTU21D;54120;53.504;49.426;2023-08-20T13:03:26;27.00;40.44
67192;HTU21D;54120;53.504;49.426;2023-08-20T13:05:54;27.19;40.10
67192;HTU21D;54120;53.504;49.426;2023-08-20T13:08:23;27.32;40.28
67192;HTU21D;54120;53.504;49.426;2023-08-20T13:10:54;27.38;39.36
67192;HTU21D;54120;53.504;49.426;2023-08-20T13:13:22;26.98;39.68
67192;HTU21D;54120;53.504;49.426;2023-08-20T13:15:50;26.89;40.47
67192;HTU21D;54120;53.504;49.426;2023-08-20T13:18:19;27.08;40.20
67192;HTU21D;54120;53.504;49.426;2023-08-20T13:20:45;27.19;39.99
67192;HTU21D;54120;53.504;49.426;2023-08-20T13:23:12;27.42;39.98
67192;HTU21D;54120;53.504;49.426;2023-08-20T13:25:39;27.46;39.56
67192;HTU21D;54120;53.504;49.426;2023-08-20T13:28:06;27.17;39.98
67192;HTU21D;54120;53.504;49.426;2023-08-20T13:30:33;27.13;40.01
67192;HTU21D;54120;53.504;49.426;2023-08-20T13:32:59;27.17;40.23
67192;HTU21D;54120;53.504;49.426;2023-08-20T13:35:26;27.01;39.98
67192;HTU21D;54120;53.504;49.426;2023-08-20T13:37:53;26.98;40.91
67192;HTU21D;54120;53.504;49.426;2023-08-20T13:40:20;26.83;40.01
67192;HTU21D;54120;53.504;49.426;2023-08-20T13:42:46;26.62;41.12
67192;HTU21D;54120;53.504;49.426;2023-08-20T13:45:12;26.73;41.21
67192;HTU21D;54120;53.504;49.426;2023-08-20T13:47:38;26.69;40.39
67192;HTU21D;54120;53.504;49.426;2023-08-20T13:50:05;26.51;41.33
67192;HTU21D;54120;53.504;49.426;2023-08-20T13:52:31;26.49;41.13
67192;HTU21D;54120;53.504;49.426;2023-08-20T13:54:58;26.54;41.52
67192;HTU21D;54120;53.504;49.426;2023-08-20T13:57:24;26.67;41.13
67192;HTU21D;54120;53.504;49.426;2023-08-20T13:59:50;26.80;40.94
67192;HTU21D;54120;53.504;49.426;2023-08-20T14:02:17;26.72;41.51
67192;HTU21D;54120;53.504;49.426;2023-08-20T14:04:43;26.83;41.63
67192;HTU21D;54120;53.504;49.426;2023-08-20T14:07:10;26.90;40.71
67192;HTU21D;54120;53.504;49.426;2023-08-20T14:09:36;26.75;41.37
67192;HTU21D;54120;53.504;49.426;2023-08-20T14:12:03;26.66;41.19
67192;HTU21D;54120;53.504;49.426;2023-08-20T14:14:29;26.52;41.26
67192;HTU21D;54120;53.504;49.426;2023-08-20T14:16:56;26.52;41.65
67192;HTU21D;54120;53.504;49.426;2023-08-20T14:19:22;26.43;42.06
67192;HTU21D;54120;53.504;49.426;2023-08-20T14:21:48;26.26;42.32
67192;HTU21D;54120;53.504;49.426;2023-08-20T14:24:15;26.37;42.05
67192;HTU21D;54120;53.504;49.426;2023-08-20T14:26:41;26.50;42.44
67192;HTU21D;54120;53.504;49.426;2023-08-20T14:29:08;26.28;42.21
67192;HTU21D;54120;53.504;49.426;2023-08-20T14:31:34;26.23;42.71
67192;HTU21D;54120;53.504;49.426;2023-08-20T14:34:00;26.28;42.68
67192;HTU21D;54120;53.504;49.426;2023-08-20T14:36:28;26.27;42.40
67192;HTU21D;54120;53.504;49.426;2023-08-20T14:38:55;26.23;42.46
67192;HTU21D;54120;53.504;49.426;2023-08-20T14:41:22;26.15;42.36
67192;HTU21D;54120;53.504;49.426;2023-08-20T14:43:49;26.01;42.92
67192;HTU21D;54120;53.504;49.426;2023-08-20T14:46:15;25.99;43.21
67192;HTU21D;54120;53.504;49.426;2023-08-20T14:48:42;26.04;42.74
67192;HTU21D;54120;53.504;49.426;2023-08-20T14:51:10;26.11;43.29
67192;HTU21D;54120;53.504;49.426;2023-08-20T14:53:37;26.03;42.68
67192;HTU21D;54120;53.504;49.426;2023-08-20T14:56:03;25.89;43.21
67192;HTU21D;54120;53.504;49.426;2023-08-20T14:58:30;25.74;43.54
67192;HTU21D;54120;53.504;49.426;2023-08-20T15:00:56;25.64;43.56
67192;HTU21D;54120;53.504;49.426;2023-08-20T15:03:23;25.58;43.93
67192;HTU21D;54120;53.504;49.426;2023-08-20T15:05:49;25.54;44.10
67192;HTU21D;54120;53.504;49.426;2023-08-20T15:08:15;25.54;44.19
67192;HTU21D;54120;53.504;49.426;2023-08-20T15:10:42;25.59;44.25
67192;HTU21D;54120;53.504;49.426;2023-08-20T15:13:08;25.54;44.11
67192;HTU21D;54120;53.504;49.426;2023-08-20T15:15:34;25.49;45.08
67192;HTU21D;54120;53.504;49.426;2023-08-20T15:18:00;25.44;45.51
67192;HTU21D;54120;53.504;49.426;2023-08-20T15:20:27;25.38;44.84
67192;HTU21D;54120;53.504;49.426;2023-08-20T15:22:53;25.31;44.82